Time;durP1;ratioP1;P1;durP2;ratioP2;P2;SDS_P1;SDS_P2;PMS_P1;PMS_P2;Temp;Humidity;BMP_temperature;BMP_pressure;BME280_temperature;BME280_humidity;BME280_pressure;Samples;Min_cycle;Max_cycle;Signal;HPM_P1;HPM_P2
2022/12/11 00:00:50;;;;;;;41.92;23.65;;;2.00;99.90;;;;;;5073446;28;20380;-73
2022/12/11 00:03:17;;;;;;;41.70;24.33;;;2.00;99.90;;;;;;5072559;28;20500;-73
2022/12/11 00:05:43;;;;;;;41.05;23.88;;;2.20;99.90;;;;;;5073565;28;20073;-74
2022/12/11 00:08:10;;;;;;;41.28;22.63;;;2.30;99.90;;;;;;5072959;28;20543;-74
2022/12/11 00:10:36;;;;;;;28.15;15.70;;;2.30;99.90;;;;;;5073705;28;20028;-73
2022/12/11 00:13:03;;;;;;;38.13;20.10;;;2.10;99.90;;;;;;5073451;28;20435;-73
2022/12/11 00:15:28;;;;;;;36.88;21.90;;;2.00;99.90;;;;;;5073584;28;20067;-73
2022/12/11 00:17:54;;;;;;;41.03;22.50;;;2.10;99.90;;;;;;5072975;28;20123;-73
2022/12/11 00:20:20;;;;;;;38.05;20.05;;;2.10;99.90;;;;;;5073903;28;20021;-74
2022/12/11 00:22:46;;;;;;;43.00;21.67;;;2.00;99.90;;;;;;5077060;28;20044;-73
2022/12/11 00:25:12;;;;;;;39.97;21.45;;;2.20;99.90;;;;;;5077027;28;20008;-72
2022/12/11 00:27:38;;;;;;;38.67;21.33;;;2.00;99.90;;;;;;5074836;28;20028;-72
2022/12/11 00:30:04;;;;;;;38.15;21.13;;;1.90;99.90;;;;;;5072565;28;20029;-74
2022/12/11 00:32:30;;;;;;;40.33;21.85;;;2.10;99.90;;;;;;5073314;28;20033;-73
2022/12/11 00:34:57;;;;;;;42.60;23.90;;;2.30;99.90;;;;;;5072606;28;20027;-74
2022/12/11 00:37:22;;;;;;;36.95;22.48;;;2.40;99.90;;;;;;5071545;28;20082;-73
2022/12/11 00:39:48;;;;;;;38.70;21.90;;;2.40;99.90;;;;;;5072807;28;20029;-73
2022/12/11 00:42:14;;;;;;;40.28;23.08;;;2.50;99.90;;;;;;5072922;28;20035;-73
2022/12/11 00:44:40;;;;;;;35.80;20.48;;;2.40;99.90;;;;;;5072726;28;20116;-73
2022/12/11 00:47:07;;;;;;;41.17;21.75;;;2.60;99.90;;;;;;5072200;28;20074;-73
2022/12/11 00:49:33;;;;;;;41.25;20.52;;;2.30;99.90;;;;;;5072181;28;20044;-73
2022/12/11 00:51:58;;;;;;;33.22;18.38;;;2.30;99.90;;;;;;5072822;28;20028;-73
2022/12/11 00:54:24;;;;;;;37.55;20.77;;;2.10;99.90;;;;;;5072543;28;20469;-73
2022/12/11 00:56:50;;;;;;;34.60;19.80;;;2.00;99.90;;;;;;5072824;28;20487;-73
2022/12/11 00:59:15;;;;;;;38.65;20.60;;;2.10;99.90;;;;;;5072543;28;20125;-74
2022/12/11 01:01:41;;;;;;;43.08;22.23;;;2.00;99.90;;;;;;5072952;28;20362;-74
2022/12/11 01:04:07;;;;;;;39.05;20.55;;;2.10;99.90;;;;;;5053582;28;20060;-73
2022/12/11 01:06:33;;;;;;;40.13;21.45;;;2.10;99.90;;;;;;5072949;28;20035;-74
2022/12/11 01:11:43;;;;;;;41.58;21.25;;;2.20;99.90;;;;;;5060040;28;20040;-71
2022/12/11 01:14:10;;;;;;;38.25;20.45;;;2.30;99.90;;;;;;5071563;28;20032;-73
2022/12/11 01:16:36;;;;;;;40.03;22.30;;;2.30;99.90;;;;;;5072419;28;20020;-74
2022/12/11 01:19:02;;;;;;;37.78;21.60;;;2.40;99.90;;;;;;5072588;28;20040;-74
2022/12/11 01:21:28;;;;;;;37.60;22.13;;;2.50;99.90;;;;;;5072068;28;20013;-74
2022/12/11 01:23:54;;;;;;;35.95;21.70;;;2.60;99.90;;;;;;5071810;28;20377;-74
2022/12/11 01:26:20;;;;;;;37.00;22.35;;;2.60;99.90;;;;;;5072632;28;20031;-74
2022/12/11 01:28:50;;;;;;;35.72;21.33;;;2.50;99.90;;;;;;5072254;28;20074;-73
2022/12/11 01:31:17;;;;;;;39.22;22.13;;;2.30;99.90;;;;;;5071667;28;20028;-73
2022/12/11 01:33:43;;;;;;;38.72;20.35;;;2.10;99.90;;;;;;5071466;28;20146;-74
2022/12/11 01:36:18;;;;;;;37.78;19.63;;;2.20;99.90;;;;;;5071263;28;20028;-74
2022/12/11 01:38:45;;;;;;;38.72;21.38;;;2.20;99.90;;;;;;5081128;28;20032;-74
2022/12/11 01:41:11;;;;;;;39.10;20.15;;;2.30;99.90;;;;;;5072179;28;20396;-74
2022/12/11 01:44:15;;;;;;;40.53;21.15;;;2.30;99.90;;;;;;5071086;28;20115;-73
2022/12/11 01:46:42;;;;;;;42.28;20.63;;;2.50;99.90;;;;;;5010539;28;20046;-73
2022/12/11 01:49:12;;;;;;;38.67;20.90;;;2.30;99.90;;;;;;5009294;28;20491;-73
2022/12/11 01:51:44;;;;;;;43.38;19.90;;;2.20;99.90;;;;;;5031545;28;20073;-73
2022/12/11 01:54:12;;;;;;;44.08;22.05;;;2.20;99.90;;;;;;5069095;28;20090;-73
2022/12/11 01:56:40;;;;;;;40.47;21.77;;;2.10;99.90;;;;;;5071258;28;20507;-74
2022/12/11 01:59:08;;;;;;;41.20;18.20;;;2.40;99.90;;;;;;5071345;28;20028;-73
2022/12/11 02:01:42;;;;;;;39.50;21.17;;;2.20;99.90;;;;;;5072515;28;20040;-74
2022/12/11 02:04:09;;;;;;;40.55;21.50;;;2.20;99.90;;;;;;5071903;28;20028;-73
2022/12/11 02:06:38;;;;;;;41.67;22.10;;;2.20;99.90;;;;;;5071955;28;20121;-73
2022/12/11 02:09:09;;;;;;;37.45;19.00;;;2.20;99.90;;;;;;5072040;28;20369;-73
2022/12/11 02:11:39;;;;;;;38.55;20.00;;;2.20;99.90;;;;;;5072016;28;20484;-73
2022/12/11 02:14:14;;;;;;;41.78;21.85;;;2.10;99.90;;;;;;5072327;28;20381;-73
2022/12/11 02:16:48;;;;;;;35.28;18.88;;;2.20;99.90;;;;;;5056149;28;20499;-73
2022/12/11 02:19:42;;;;;;;45.83;22.98;;;2.30;99.90;;;;;;5071941;28;20037;-73
2022/12/11 02:22:14;;;;;;;38.90;20.92;;;2.30;99.90;;;;;;5072027;28;20515;-73
2022/12/11 02:25:02;;;;;;;43.88;22.73;;;2.40;99.90;;;;;;5071983;28;20041;-73
2022/12/11 02:27:34;;;;;;;38.42;20.60;;;2.20;99.90;;;;;;5074568;28;20511;-73
2022/12/11 02:30:09;;;;;;;36.72;19.75;;;2.30;99.90;;;;;;5075454;28;20031;-73
2022/12/11 02:32:46;;;;;;;39.03;21.10;;;2.10;99.90;;;;;;5074422;28;20097;-73
2022/12/11 02:35:16;;;;;;;36.40;20.30;;;2.20;99.90;;;;;;5074312;28;20039;-73
2022/12/11 02:37:45;;;;;;;41.90;20.75;;;2.30;99.90;;;;;;5074451;28;20029;-73
2022/12/11 02:40:15;;;;;;;40.92;20.60;;;2.40;99.90;;;;;;5074175;28;20504;-73
2022/12/11 02:42:44;;;;;;;38.90;22.25;;;2.40;99.90;;;;;;5074661;28;20039;-73
2022/12/11 02:45:11;;;;;;;43.75;21.65;;;2.40;99.90;;;;;;5074772;28;20040;-73
2022/12/11 02:47:38;;;;;;;45.45;23.52;;;2.50;99.90;;;;;;5075642;28;20035;-73
2022/12/11 02:50:09;;;;;;;45.70;23.40;;;2.60;99.90;;;;;;5075226;28;20115;-73
2022/12/11 02:52:37;;;;;;;44.60;22.65;;;2.50;99.90;;;;;;5074664;28;20036;-73
2022/12/11 02:55:06;;;;;;;46.08;25.02;;;2.50;99.90;;;;;;5073033;28;20033;-73
2022/12/11 02:57:42;;;;;;;46.83;25.50;;;2.60;99.90;;;;;;5073588;28;20473;-72
2022/12/11 03:00:10;;;;;;;49.97;25.80;;;2.70;99.90;;;;;;5075015;28;20170;-71
2022/12/11 03:02:37;;;;;;;46.55;24.83;;;2.60;99.90;;;;;;5074209;28;20036;-71
2022/12/11 03:05:04;;;;;;;46.42;23.92;;;2.60;99.90;;;;;;5075037;28;20432;-71
2022/12/11 03:07:34;;;;;;;51.00;24.95;;;2.60;99.90;;;;;;5074843;28;20028;-71
2022/12/11 03:10:00;;;;;;;49.40;24.55;;;2.60;99.90;;;;;;5074185;28;20020;-72
2022/12/11 03:12:33;;;;;;;47.50;24.30;;;2.60;99.90;;;;;;5074429;28;20059;-71
2022/12/11 03:15:02;;;;;;;47.17;25.92;;;2.80;99.90;;;;;;5074746;28;20028;-72
2022/12/11 03:17:46;;;;;;;45.22;24.15;;;2.80;99.90;;;;;;5073889;28;20530;-71
2022/12/11 03:20:21;;;;;;;55.10;25.67;;;2.90;99.90;;;;;;5071753;28;20024;-72
2022/12/11 03:23:20;;;;;;;51.38;25.13;;;2.70;99.90;;;;;;5073231;28;20431;-71
2022/12/11 03:26:02;;;;;;;44.05;23.88;;;2.80;99.90;;;;;;5070206;28;20044;-73
2022/12/11 03:28:39;;;;;;;45.55;23.52;;;2.70;99.90;;;;;;5073766;28;20490;-73
2022/12/11 03:31:10;;;;;;;52.85;24.88;;;2.90;99.90;;;;;;5073144;28;20120;-73
2022/12/11 03:33:40;;;;;;;46.03;23.67;;;2.90;99.90;;;;;;5074456;28;20040;-73
2022/12/11 03:36:13;;;;;;;49.15;23.60;;;2.80;99.90;;;;;;5074189;28;20063;-73
2022/12/11 03:38:53;;;;;;;51.80;23.83;;;2.80;99.90;;;;;;5072055;28;20032;-73
2022/12/11 03:41:22;;;;;;;50.55;24.67;;;2.70;99.90;;;;;;5074226;28;20040;-73
2022/12/11 03:43:51;;;;;;;45.42;23.30;;;2.80;99.90;;;;;;5074104;28;20040;-73
2022/12/11 03:46:21;;;;;;;43.00;22.45;;;2.80;99.90;;;;;;5073259;28;20503;-73
2022/12/11 03:48:48;;;;;;;48.85;23.83;;;2.60;99.90;;;;;;5073824;28;20116;-73
2022/12/11 03:51:16;;;;;;;45.65;24.48;;;2.60;99.90;;;;;;5072816;28;20116;-73
2022/12/11 03:53:43;;;;;;;45.45;23.83;;;2.40;99.90;;;;;;5073831;28;20103;-71
2022/12/11 03:56:10;;;;;;;49.53;23.90;;;2.40;99.90;;;;;;5070570;28;20013;-73
2022/12/11 03:58:37;;;;;;;56.67;24.40;;;2.60;99.90;;;;;;5073671;28;20024;-74
2022/12/11 04:01:03;;;;;;;48.00;24.58;;;2.70;99.90;;;;;;5073779;28;20020;-72
2022/12/11 04:03:28;;;;;;;44.90;22.35;;;2.70;99.90;;;;;;5073630;28;20405;-73
2022/12/11 04:05:55;;;;;;;49.13;23.90;;;2.60;99.90;;;;;;5073463;28;20031;-73
2022/12/11 04:08:21;;;;;;;43.42;23.38;;;2.70;99.90;;;;;;5072726;28;20311;-73
2022/12/11 04:11:33;;;;;;;43.70;23.75;;;2.60;99.90;;;;;;5073648;28;20035;-74
2022/12/11 04:13:34;;;;;;;45.13;23.00;;;2.70;99.90;;;;;;5072493;28;20033;-73
2022/12/11 04:16:00;;;;;;;51.72;24.50;;;2.70;99.90;;;;;;5073449;28;20112;-73
2022/12/11 04:26:39;;;;;;;47.45;23.83;;;2.80;99.90;;;;;;5072829;28;20083;-73
2022/12/11 04:29:05;;;;;;;43.97;22.65;;;2.80;99.90;;;;;;5073227;28;20426;-72
2022/12/11 04:31:31;;;;;;;47.78;22.48;;;2.70;99.90;;;;;;5073187;28;20063;-74
2022/12/11 04:33:57;;;;;;;45.55;23.48;;;2.80;99.90;;;;;;5072899;28;20468;-73
2022/12/11 04:36:23;;;;;;;45.60;21.73;;;2.90;99.90;;;;;;5071922;28;20082;-73
2022/12/11 04:38:49;;;;;;;44.92;21.77;;;3.00;99.90;;;;;;5073158;28;20017;-74
2022/12/11 04:41:15;;;;;;;47.00;22.65;;;2.90;99.90;;;;;;5072306;28;20032;-73
2022/12/11 04:43:43;;;;;;;42.58;21.98;;;2.90;99.90;;;;;;5073265;28;20025;-74
2022/12/11 04:46:16;;;;;;;47.88;24.20;;;2.90;99.90;;;;;;5072821;28;20036;-73
2022/12/11 04:48:42;;;;;;;38.33;21.17;;;2.90;99.90;;;;;;5072794;28;20037;-73
2022/12/11 04:51:09;;;;;;;46.83;21.73;;;2.80;99.90;;;;;;5072304;28;20025;-73
2022/12/11 04:53:35;;;;;;;42.30;21.77;;;2.80;99.90;;;;;;5072058;28;20112;-74
2022/12/11 04:56:04;;;;;;;42.75;21.88;;;2.70;99.90;;;;;;5071628;28;20013;-73
2022/12/11 04:58:30;;;;;;;47.97;22.35;;;2.80;99.90;;;;;;5071826;28;20035;-73
2022/12/11 05:00:55;;;;;;;45.92;22.88;;;2.80;99.90;;;;;;5072785;28;20020;-74
2022/12/11 05:03:21;;;;;;;46.47;21.63;;;2.80;99.90;;;;;;5072730;28;20471;-73
2022/12/11 05:05:51;;;;;;;46.97;24.20;;;2.80;99.90;;;;;;5072609;28;20032;-73
2022/12/11 05:08:19;;;;;;;44.15;23.13;;;2.80;99.90;;;;;;5071373;28;20033;-73
2022/12/11 05:10:53;;;;;;;49.20;24.92;;;2.70;99.90;;;;;;5071523;28;20029;-73
2022/12/11 05:13:19;;;;;;;46.00;23.25;;;2.70;99.90;;;;;;5072242;28;20112;-73
2022/12/11 05:15:45;;;;;;;44.38;24.45;;;2.70;99.90;;;;;;5071436;28;20059;-73
2022/12/11 05:18:10;;;;;;;47.53;24.52;;;2.80;99.90;;;;;;5069758;28;20040;-73
2022/12/11 05:20:36;;;;;;;55.85;28.75;;;2.80;99.90;;;;;;5070569;28;20027;-73
2022/12/11 05:23:02;;;;;;;54.38;25.25;;;2.70;99.90;;;;;;5072231;28;20514;-73
2022/12/11 05:25:28;;;;;;;50.05;24.73;;;2.60;99.90;;;;;;5072011;28;20027;-72
2022/12/11 05:27:53;;;;;;;44.10;23.50;;;2.70;99.90;;;;;;5072814;28;20491;-73
2022/12/11 05:30:19;;;;;;;52.17;25.33;;;2.60;99.90;;;;;;5072421;28;20484;-73
2022/12/11 05:32:45;;;;;;;53.60;25.63;;;2.60;99.90;;;;;;5071623;28;20114;-71
2022/12/11 05:35:10;;;;;;;54.47;26.42;;;2.50;99.90;;;;;;5070340;28;20032;-71
2022/12/11 05:37:36;;;;;;;50.03;27.20;;;2.50;99.90;;;;;;5072311;28;20492;-71
2022/12/11 05:40:05;;;;;;;56.08;27.38;;;2.50;99.90;;;;;;5072406;28;20021;-71
2022/12/11 05:42:32;;;;;;;51.55;25.58;;;2.50;99.90;;;;;;5071900;28;20033;-71
2022/12/11 05:44:58;;;;;;;56.28;26.83;;;2.60;99.90;;;;;;5069306;28;20013;-71
2022/12/11 05:47:24;;;;;;;58.95;29.60;;;2.60;99.90;;;;;;5072110;28;20387;-71
2022/12/11 05:49:50;;;;;;;54.78;27.70;;;2.60;99.90;;;;;;5072030;28;20023;-71
2022/12/11 05:52:16;;;;;;;59.35;29.83;;;2.60;99.90;;;;;;5071324;28;20090;-71
2022/12/11 05:54:42;;;;;;;52.88;27.60;;;2.70;99.90;;;;;;5072325;28;20499;-71
2022/12/11 05:57:08;;;;;;;53.25;27.80;;;2.80;99.90;;;;;;5072122;28;20021;-72
2022/12/11 05:59:34;;;;;;;55.60;29.13;;;2.70;99.90;;;;;;5072249;28;20126;-72
2022/12/11 06:01:59;;;;;;;65.30;33.90;;;2.70;99.90;;;;;;5075294;28;20030;-71
2022/12/11 06:04:25;;;;;;;58.05;30.55;;;2.80;99.90;;;;;;5074626;28;20455;-71
2022/12/11 06:06:53;;;;;;;60.72;30.15;;;2.80;99.90;;;;;;5076277;28;20055;-71
2022/12/11 06:09:19;;;;;;;53.95;28.05;;;2.80;99.90;;;;;;5074997;28;20025;-71
2022/12/11 06:11:45;;;;;;;57.53;28.38;;;2.80;99.90;;;;;;5084440;28;20037;-71
2022/12/11 06:14:12;;;;;;;64.65;32.78;;;2.70;99.90;;;;;;5075957;28;20132;-71
2022/12/11 06:16:37;;;;;;;53.22;28.77;;;2.80;99.90;;;;;;5075480;28;20099;-71
2022/12/11 06:19:03;;;;;;;57.45;30.33;;;2.80;99.90;;;;;;5074775;28;20472;-71
2022/12/11 06:21:31;;;;;;;48.70;27.70;;;2.90;99.90;;;;;;5075571;28;20376;-71
2022/12/11 06:23:58;;;;;;;56.75;28.23;;;2.70;99.90;;;;;;5073820;28;20046;-72
2022/12/11 06:26:26;;;;;;;54.50;29.38;;;2.70;99.90;;;;;;5074432;28;20033;-72
2022/12/11 06:28:52;;;;;;;58.10;29.20;;;2.60;99.90;;;;;;5074986;28;20024;-73
2022/12/11 06:31:18;;;;;;;53.60;27.15;;;2.60;99.90;;;;;;5075674;28;20047;-73
2022/12/11 06:33:44;;;;;;;56.13;30.73;;;2.70;99.90;;;;;;5073711;28;20028;-73
2022/12/11 06:36:13;;;;;;;52.67;26.63;;;2.80;99.90;;;;;;5075396;28;20036;-73
2022/12/11 06:38:39;;;;;;;50.40;26.33;;;2.90;99.90;;;;;;5074414;28;20032;-73
2022/12/11 06:41:06;;;;;;;54.55;28.27;;;2.90;99.90;;;;;;5075480;28;20028;-73
2022/12/11 06:43:33;;;;;;;52.25;27.80;;;3.00;99.90;;;;;;5074735;28;20021;-73
2022/12/11 06:46:06;;;;;;;57.45;28.38;;;3.00;99.90;;;;;;5073871;28;20388;-73
2022/12/11 06:48:32;;;;;;;53.92;27.08;;;2.90;99.90;;;;;;5074059;28;20025;-72
2022/12/11 06:50:58;;;;;;;57.35;29.08;;;2.90;99.90;;;;;;5074107;28;20051;-73
2022/12/11 06:53:23;;;;;;;55.08;27.90;;;2.90;99.90;;;;;;5075136;28;20070;-73
2022/12/11 06:55:49;;;;;;;55.20;29.40;;;2.80;99.90;;;;;;5075005;28;20048;-73
2022/12/11 06:58:15;;;;;;;52.58;28.63;;;2.90;99.90;;;;;;5074506;28;20043;-73
2022/12/11 07:00:41;;;;;;;59.08;31.40;;;2.80;99.90;;;;;;5074662;28;20036;-72
2022/12/11 07:03:08;;;;;;;61.42;30.30;;;2.80;99.90;;;;;;5074327;28;20457;-73
2022/12/11 07:05:34;;;;;;;61.53;33.80;;;2.80;99.90;;;;;;5074136;28;20024;-72
2022/12/11 07:08:00;;;;;;;55.92;29.52;;;2.90;99.90;;;;;;5074681;28;20020;-73
2022/12/11 07:10:27;;;;;;;58.42;30.83;;;2.70;99.90;;;;;;5074714;28;20077;-72
2022/12/11 07:12:53;;;;;;;58.20;29.88;;;2.70;99.90;;;;;;5073381;28;20042;-73
2022/12/11 07:15:19;;;;;;;62.38;30.85;;;2.70;99.90;;;;;;5074784;28;20032;-73
2022/12/11 07:17:44;;;;;;;60.92;30.20;;;2.60;99.90;;;;;;5074672;28;20028;-74
2022/12/11 07:20:10;;;;;;;59.63;30.95;;;2.70;99.90;;;;;;5074207;28;20020;-73
2022/12/11 07:22:36;;;;;;;66.53;31.10;;;2.80;99.90;;;;;;5073796;28;20043;-73
2022/12/11 07:25:02;;;;;;;58.33;28.65;;;2.80;99.90;;;;;;5073998;28;20020;-73
2022/12/11 07:27:28;;;;;;;65.00;30.00;;;2.70;99.90;;;;;;5073763;28;20039;-72
2022/12/11 07:29:54;;;;;;;62.05;31.42;;;2.80;99.90;;;;;;5073234;28;20029;-73
2022/12/11 07:32:21;;;;;;;59.55;29.80;;;2.80;99.90;;;;;;5073742;28;20055;-73
2022/12/11 07:34:50;;;;;;;60.95;31.00;;;2.90;99.90;;;;;;5071261;28;20032;-73
2022/12/11 07:37:16;;;;;;;68.63;32.92;;;2.70;99.90;;;;;;5072587;28;20044;-73
2022/12/11 07:39:42;;;;;;;61.97;31.10;;;2.80;99.90;;;;;;5073469;28;20005;-73
2022/12/11 07:42:07;;;;;;;66.57;31.90;;;2.90;99.90;;;;;;5068502;28;20046;-72
2022/12/11 07:44:33;;;;;;;65.75;32.25;;;2.80;99.90;;;;;;5061454;28;20056;-73
2022/12/11 07:46:59;;;;;;;63.33;31.13;;;2.70;99.90;;;;;;5057800;28;20390;-73
2022/12/11 07:49:25;;;;;;;64.72;31.92;;;2.60;99.90;;;;;;5072593;28;20033;-72
2022/12/11 07:51:50;;;;;;;68.93;33.28;;;2.70;99.90;;;;;;5073021;28;20028;-72
2022/12/11 07:54:17;;;;;;;67.95;33.97;;;2.60;99.90;;;;;;5067958;28;20031;-73
2022/12/11 07:56:44;;;;;;;74.32;34.22;;;2.50;99.90;;;;;;5063837;28;20025;-73
2022/12/11 07:59:10;;;;;;;63.75;33.45;;;2.40;99.90;;;;;;5073305;28;20032;-73
2022/12/11 08:01:36;;;;;;;70.68;34.35;;;2.40;99.90;;;;;;5072899;28;20034;-72
2022/12/11 08:04:04;;;;;;;65.07;32.95;;;2.50;99.90;;;;;;5072022;28;20452;-72
2022/12/11 08:06:32;;;;;;;74.00;33.58;;;2.60;99.90;;;;;;5073047;28;20070;-73
2022/12/11 08:08:59;;;;;;;73.03;34.58;;;2.60;99.90;;;;;;5073604;28;20029;-71
2022/12/11 08:11:26;;;;;;;72.13;34.38;;;2.70;99.90;;;;;;5070604;28;20052;-71
2022/12/11 08:13:52;;;;;;;74.63;33.67;;;2.60;99.90;;;;;;5070054;28;20040;-71
2022/12/11 08:16:18;;;;;;;70.28;33.10;;;2.60;99.90;;;;;;5072497;28;20033;-70
2022/12/11 08:18:45;;;;;;;71.28;33.90;;;2.60;99.90;;;;;;5072284;28;20035;-70
2022/12/11 08:21:14;;;;;;;70.15;32.10;;;2.50;99.90;;;;;;5072059;28;20469;-71
2022/12/11 08:23:41;;;;;;;73.50;32.88;;;2.40;99.90;;;;;;5071889;28;20473;-73
2022/12/11 08:26:15;;;;;;;69.05;33.75;;;2.50;99.90;;;;;;5071658;28;20382;-73
2022/12/11 08:28:40;;;;;;;73.15;34.60;;;2.50;99.90;;;;;;5072179;28;20483;-73
2022/12/11 08:31:08;;;;;;;74.38;32.20;;;2.70;99.90;;;;;;5072226;28;20054;-73
2022/12/11 08:33:35;;;;;;;70.75;31.85;;;2.80;99.90;;;;;;5071154;28;20076;-74
2022/12/11 08:36:05;;;;;;;68.07;32.53;;;2.80;99.90;;;;;;5060164;28;20511;-72
2022/12/11 08:38:34;;;;;;;63.53;30.88;;;2.60;99.90;;;;;;5067926;28;20036;-74
2022/12/11 08:41:12;;;;;;;64.95;28.85;;;2.70;99.90;;;;;;5065633;28;20123;-74
2022/12/11 08:43:37;;;;;;;61.05;30.60;;;2.50;99.90;;;;;;5065480;28;20100;-74
2022/12/11 08:46:03;;;;;;;63.97;30.13;;;2.50;99.90;;;;;;5069801;28;20120;-73
2022/12/11 08:48:29;;;;;;;59.90;31.55;;;2.50;99.90;;;;;;5070651;28;20059;-73
2022/12/11 08:50:59;;;;;;;72.60;32.08;;;2.60;99.90;;;;;;5077470;28;20028;-74
2022/12/11 08:53:25;;;;;;;63.65;31.40;;;2.70;99.90;;;;;;5063174;28;20047;-73
2022/12/11 08:55:50;;;;;;;60.45;30.75;;;2.80;99.90;;;;;;5068388;28;20020;-73
2022/12/11 08:58:17;;;;;;;60.70;28.30;;;2.70;99.90;;;;;;5070900;28;20496;-74
2022/12/11 09:00:42;;;;;;;59.60;26.17;;;2.70;99.90;;;;;;5071615;28;20025;-74
2022/12/11 09:03:08;;;;;;;61.33;27.85;;;2.60;99.90;;;;;;5071557;28;20021;-74
2022/12/11 09:05:36;;;;;;;65.53;30.08;;;2.50;99.90;;;;;;5071237;28;20081;-73
2022/12/11 09:08:02;;;;;;;61.25;28.42;;;2.60;99.90;;;;;;5071613;28;20017;-73
2022/12/11 09:10:28;;;;;;;55.58;28.42;;;2.60;99.90;;;;;;5071735;28;20473;-73
2022/12/11 09:12:53;;;;;;;52.60;25.85;;;2.60;99.90;;;;;;5071277;28;20028;-73
2022/12/11 09:15:19;;;;;;;56.22;28.30;;;2.60;99.90;;;;;;5070965;28;20163;-73
2022/12/11 09:17:45;;;;;;;54.70;26.33;;;2.50;99.90;;;;;;5071720;28;20072;-73
2022/12/11 09:20:11;;;;;;;56.15;27.90;;;2.50;99.90;;;;;;5070716;28;20017;-73
2022/12/11 09:22:36;;;;;;;55.05;28.27;;;2.60;99.90;;;;;;5071396;28;20082;-73
2022/12/11 09:25:02;;;;;;;54.53;24.23;;;2.60;99.90;;;;;;5070725;28;20021;-73
2022/12/11 09:27:28;;;;;;;61.70;28.25;;;2.50;99.90;;;;;;5070283;28;20020;-73
2022/12/11 09:29:54;;;;;;;56.63;26.50;;;2.50;99.90;;;;;;5067100;28;20021;-72
2022/12/11 09:32:19;;;;;;;54.00;26.13;;;2.60;99.90;;;;;;5052440;28;20027;-73
2022/12/11 09:34:48;;;;;;;62.50;28.25;;;2.40;99.90;;;;;;5070005;28;20485;-73
2022/12/11 09:37:14;;;;;;;58.95;24.98;;;2.40;99.90;;;;;;5073838;28;20442;-73
2022/12/11 09:39:40;;;;;;;63.80;27.65;;;2.60;99.90;;;;;;5075966;28;20024;-73
2022/12/11 09:42:17;;;;;;;53.25;25.90;;;2.60;99.90;;;;;;5074538;28;20032;-72
2022/12/11 09:44:51;;;;;;;51.78;26.67;;;2.70;99.90;;;;;;5075662;28;20367;-73
2022/12/11 09:47:30;;;;;;;53.17;26.27;;;2.70;99.90;;;;;;5074301;28;20036;-73
2022/12/11 09:50:05;;;;;;;53.13;26.02;;;2.90;99.90;;;;;;5074309;28;20115;-73
2022/12/11 09:52:41;;;;;;;57.70;25.92;;;2.90;99.90;;;;;;5074950;28;20051;-73
2022/12/11 09:55:32;;;;;;;42.67;20.95;;;2.80;99.90;;;;;;5070678;28;20017;-73
2022/12/11 09:58:21;;;;;;;44.88;22.40;;;2.60;99.90;;;;;;5060611;28;20026;-72
2022/12/11 10:00:52;;;;;;;46.33;24.58;;;2.40;99.90;;;;;;5074586;28;20064;-73
2022/12/11 10:03:35;;;;;;;48.38;22.90;;;2.30;99.90;;;;;;5074815;28;20032;-73
2022/12/11 10:06:21;;;;;;;46.72;24.38;;;2.40;99.90;;;;;;5075834;28;20043;-72
2022/12/11 10:09:04;;;;;;;50.42;25.05;;;2.60;99.90;;;;;;5075902;28;20032;-72
2022/12/11 10:11:33;;;;;;;49.17;22.13;;;2.50;99.90;;;;;;5074735;28;20029;-73
2022/12/11 10:14:26;;;;;;;49.38;23.20;;;2.40;99.90;;;;;;5074617;28;20033;-72
2022/12/11 10:16:58;;;;;;;43.17;22.17;;;2.40;99.90;;;;;;5070406;28;20159;-73
2022/12/11 10:19:27;;;;;;;48.38;23.58;;;2.50;99.90;;;;;;5072496;28;20036;-74
2022/12/11 10:21:54;;;;;;;51.78;24.55;;;2.30;99.90;;;;;;5072136;28;20270;-73
2022/12/11 10:24:43;;;;;;;41.45;19.33;;;2.30;99.90;;;;;;5074315;28;20036;-72
2022/12/11 10:27:33;;;;;;;49.20;22.98;;;2.20;99.90;;;;;;5073433;28;20035;-73
2022/12/11 10:30:16;;;;;;;51.90;23.17;;;2.00;99.90;;;;;;5065597;28;20122;-73
2022/12/11 10:32:50;;;;;;;52.28;24.27;;;2.10;99.90;;;;;;5074908;28;20044;-73
2022/12/11 10:35:22;;;;;;;48.00;24.48;;;2.20;99.90;;;;;;5071725;28;20012;-73
2022/12/11 10:37:49;;;;;;;;;;;2.40;99.90;;;;;;5075354;28;20043;-73
2022/12/11 10:40:17;;;;;;;58.50;25.58;;;2.40;99.90;;;;;;5073185;28;19915;-73
2022/12/11 10:42:52;;;;;;;52.80;24.25;;;2.40;99.90;;;;;;5074843;28;20106;-73
2022/12/11 10:45:18;;;;;;;56.28;25.88;;;2.40;99.90;;;;;;5072613;28;20473;-73
2022/12/11 10:47:43;;;;;;;45.97;22.40;;;2.40;99.90;;;;;;5074400;28;20042;-73
2022/12/11 10:50:22;;;;;;;45.38;21.70;;;2.40;99.90;;;;;;5075029;28;20028;-73
2022/12/11 10:52:49;;;;;;;46.35;20.67;;;2.30;99.90;;;;;;5075160;28;20029;-71
2022/12/11 10:55:28;;;;;;;45.47;21.20;;;2.20;99.90;;;;;;5074824;28;20029;-71
2022/12/11 10:58:03;;;;;;;54.08;23.67;;;2.20;99.90;;;;;;5070289;28;20451;-71
2022/12/11 11:00:39;;;;;;;52.90;24.35;;;2.20;99.90;;;;;;5065762;28;20086;-71
2022/12/11 11:03:23;;;;;;;51.65;23.00;;;2.40;99.90;;;;;;5051892;28;20029;-71
2022/12/11 11:05:49;;;;;;;52.67;23.58;;;2.60;99.90;;;;;;5060499;28;20033;-73
2022/12/11 11:08:18;;;;;;;55.53;23.75;;;2.40;99.90;;;;;;5070561;28;20025;-73
2022/12/11 11:10:57;;;;;;;52.25;24.05;;;2.40;99.90;;;;;;5074855;28;20140;-73
2022/12/11 11:13:28;;;;;;;48.70;22.30;;;2.40;99.90;;;;;;5071774;28;20037;-73
2022/12/11 11:16:04;;;;;;;50.00;21.33;;;2.50;99.90;;;;;;5073281;28;20056;-73
2022/12/11 11:18:30;;;;;;;51.10;22.90;;;2.50;99.90;;;;;;5073969;28;20537;-74
2022/12/11 11:20:57;;;;;;;53.83;22.40;;;2.60;99.90;;;;;;5071506;28;20021;-73
2022/12/11 11:23:24;;;;;;;50.75;23.38;;;2.60;99.90;;;;;;5072470;28;20028;-73
2022/12/11 11:26:00;;;;;;;47.47;21.67;;;2.70;99.90;;;;;;5074123;28;20107;-73
2022/12/11 11:28:34;;;;;;;49.40;21.92;;;2.70;99.90;;;;;;5073970;28;20082;-73
2022/12/11 11:31:19;;;;;;;55.08;23.35;;;2.80;99.90;;;;;;5072620;28;20096;-74
2022/12/11 11:34:02;;;;;;;47.45;21.88;;;2.80;99.90;;;;;;5072301;28;20040;-73
2022/12/11 11:36:29;;;;;;;;;;;2.80;99.90;;;;;;5074518;28;20119;-73
2022/12/11 11:39:16;;;;;;;50.30;22.67;;;2.80;99.90;;;;;;5074157;28;19915;-73
2022/12/11 11:42:30;;;;;;;47.38;21.15;;;2.80;99.90;;;;;;5072894;28;20086;-73
2022/12/11 11:45:09;;;;;;;57.60;23.67;;;3.00;99.90;;;;;;5037934;28;20033;-71
2022/12/11 11:47:42;;;;;;;50.63;23.13;;;3.00;99.90;;;;;;5073201;28;20043;-71
2022/12/11 11:50:16;;;;;;;52.92;22.17;;;3.00;99.90;;;;;;5074244;28;20037;-71
2022/12/11 11:53:01;;;;;;;50.10;22.85;;;2.90;99.90;;;;;;5073646;28;20131;-71
2022/12/11 11:55:49;;;;;;;55.97;24.80;;;2.80;99.90;;;;;;5072599;28;20032;-71
2022/12/11 11:58:21;;;;;;;53.70;22.33;;;3.10;99.90;;;;;;5071780;28;20040;-71
2022/12/11 12:00:48;;;;;;;47.33;22.40;;;3.30;99.90;;;;;;5072403;28;20036;-71
2022/12/11 12:03:23;;;;;;;52.03;21.90;;;3.20;99.90;;;;;;5073769;28;20016;-70
2022/12/11 12:05:55;;;;;;;46.38;19.98;;;3.20;99.90;;;;;;5072411;28;20021;-71
2022/12/11 12:08:32;;;;;;;48.38;21.05;;;2.90;99.90;;;;;;5072483;28;20517;-72
2022/12/11 12:11:19;;;;;;;46.83;21.17;;;3.10;99.90;;;;;;5073141;28;20045;-71
2022/12/11 12:13:50;;;;;;;48.30;20.40;;;3.20;99.90;;;;;;5064890;28;20037;-70
2022/12/11 12:16:25;;;;;;;51.72;22.55;;;2.90;99.90;;;;;;5067571;28;20032;-71
2022/12/11 12:19:03;;;;;;;45.45;18.95;;;2.90;99.90;;;;;;5056487;28;20028;-71
2022/12/11 12:21:37;;;;;;;40.85;18.42;;;2.80;99.90;;;;;;5066250;28;20047;-71
2022/12/11 12:24:16;;;;;;;46.30;20.45;;;2.80;99.90;;;;;;5066211;28;20024;-73
2022/12/11 12:26:59;;;;;;;40.80;17.75;;;2.90;99.90;;;;;;5070057;28;20377;-71
2022/12/11 12:29:34;;;;;;;40.58;19.15;;;2.90;99.90;;;;;;5066164;28;20484;-71
2022/12/11 12:32:07;;;;;;;37.90;14.88;;;2.70;99.90;;;;;;5070749;28;20400;-71
2022/12/11 12:34:40;;;;;;;47.25;19.73;;;2.80;99.90;;;;;;5070941;28;20086;-72
2022/12/11 12:37:20;;;;;;;;;;;2.60;99.90;;;;;;5068343;28;20038;-70
2022/12/11 12:40:05;;;;;;;35.63;16.67;;;2.50;99.90;;;;;;5085001;28;20360;-71
2022/12/11 12:43:01;;;;;;;43.17;19.38;;;2.50;99.90;;;;;;5071625;28;20025;-72
2022/12/11 12:45:41;;;;;;;44.25;19.50;;;2.70;99.90;;;;;;5072638;28;20492;-72
2022/12/11 12:48:08;;;;;;;39.80;18.63;;;2.70;99.90;;;;;;5071091;28;20494;-75
2022/12/11 12:50:43;;;;;;;38.17;18.38;;;2.80;99.90;;;;;;5072097;28;20377;-75
2022/12/11 12:53:16;;;;;;;41.80;18.38;;;3.00;99.90;;;;;;5072223;28;20040;-76
2022/12/11 12:55:43;;;;;;;43.15;18.75;;;3.00;99.90;;;;;;5070184;28;20024;-74
2022/12/11 12:58:34;;;;;;;38.95;17.95;;;3.00;99.90;;;;;;5071153;28;20443;-75
2022/12/11 13:01:18;;;;;;;32.88;16.55;;;3.20;99.90;;;;;;5070472;28;20035;-76
2022/12/11 13:03:55;;;;;;;40.35;17.63;;;3.30;99.90;;;;;;5072384;28;20401;-75